sensor_id;sensor_type;location;lat;lon;timestamp;temperature;humidity
9219;DHT22;4644;48.858;9.184;2023-04-29T00:01:03;11.90;99.90
9219;DHT22;4644;48.858;9.184;2023-04-29T00:03:31;12.10;99.90
9219;DHT22;4644;48.858;9.184;2023-04-29T00:05:58;12.10;99.90
9219;DHT22;4644;48.858;9.184;2023-04-29T00:08:25;12.10;99.90
9219;DHT22;4644;48.858;9.184;2023-04-29T00:10:52;12.10;99.90
9219;DHT22;4644;48.858;9.184;2023-04-29T00:13:20;12.10;99.90
9219;DHT22;4644;48.858;9.184;2023-04-29T00:15:46;12.10;99.90
9219;DHT22;4644;48.858;9.184;2023-04-29T00:18:13;12.20;99.90
9219;DHT22;4644;48.858;9.184;2023-04-29T00:20:42;12.10;99.90
9219;DHT22;4644;48.858;9.184;2023-04-29T00:23:09;12.10;99.90
9219;DHT22;4644;48.858;9.184;2023-04-29T00:25:36;12.10;99.90
9219;DHT22;4644;48.858;9.184;2023-04-29T00:28:03;12.10;99.90
9219;DHT22;4644;48.858;9.184;2023-04-29T00:30:30;12.00;99.90
9219;DHT22;4644;48.858;9.184;2023-04-29T00:32:58;11.90;99.90
9219;DHT22;4644;48.858;9.184;2023-04-29T00:35:24;12.00;99.90
9219;DHT22;4644;48.858;9.184;2023-04-29T00:37:53;11.90;99.90
9219;DHT22;4644;48.858;9.184;2023-04-29T00:40:20;11.90;99.90
9219;DHT22;4644;48.858;9.184;2023-04-29T00:42:47;11.80;99.90
9219;DHT22;4644;48.858;9.184;2023-04-29T00:45:13;11.70;99.90
9219;DHT22;4644;48.858;9.184;2023-04-29T00:47:40;11.70;99.90
9219;DHT22;4644;48.858;9.184;2023-04-29T00:50:08;11.60;99.90
9219;DHT22;4644;48.858;9.184;2023-04-29T00:52:37;11.60;99.90
9219;DHT22;4644;48.858;9.184;2023-04-29T00:55:06;11.60;99.90
9219;DHT22;4644;48.858;9.184;2023-04-29T00:57:33;11.60;99.90
9219;DHT22;4644;48.858;9.184;2023-04-29T01:00:00;11.50;99.90
9219;DHT22;4644;48.858;9.184;2023-04-29T01:02:28;11.50;99.90
9219;DHT22;4644;48.858;9.184;2023-04-29T01:04:55;11.40;99.90
9219;DHT22;4644;48.858;9.184;2023-04-29T01:07:29;11.40;99.90
9219;DHT22;4644;48.858;9.184;2023-04-29T01:10:02;11.40;99.90
9219;DHT22;4644;48.858;9.184;2023-04-29T01:12:39;11.40;99.90
9219;DHT22;4644;48.858;9.184;2023-04-29T01:15:11;11.40;99.90
9219;DHT22;4644;48.858;9.184;2023-04-29T01:17:41;11.60;99.90
9219;DHT22;4644;48.858;9.184;2023-04-29T01:20:10;11.50;99.90
9219;DHT22;4644;48.858;9.184;2023-04-29T01:22:37;11.70;99.90
9219;DHT22;4644;48.858;9.184;2023-04-29T01:25:06;11.60;99.90
9219;DHT22;4644;48.858;9.184;2023-04-29T01:27:41;11.60;99.90
9219;DHT22;4644;48.858;9.184;2023-04-29T01:30:15;11.50;99.90
9219;DHT22;4644;48.858;9.184;2023-04-29T01:32:52;11.60;99.90
9219;DHT22;4644;48.858;9.184;2023-04-29T01:35:33;11.60;99.90
9219;DHT22;4644;48.858;9.184;2023-04-29T01:38:10;11.70;99.90
9219;DHT22;4644;48.858;9.184;2023-04-29T01:40:47;11.70;99.90
9219;DHT22;4644;48.858;9.184;2023-04-29T01:43:22;11.60;99.90
9219;DHT22;4644;48.858;9.184;2023-04-29T01:45:49;11.60;99.90
9219;DHT22;4644;48.858;9.184;2023-04-29T01:48:19;11.60;99.90
9219;DHT22;4644;48.858;9.184;2023-04-29T01:50:46;11.50;99.90
9219;DHT22;4644;48.858;9.184;2023-04-29T01:53:13;11.40;99.90
9219;DHT22;4644;48.858;9.184;2023-04-29T01:55:40;11.50;99.90
9219;DHT22;4644;48.858;9.184;2023-04-29T01:58:09;11.40;99.90
9219;DHT22;4644;48.858;9.184;2023-04-29T02:00:36;11.40;99.90
9219;DHT22;4644;48.858;9.184;2023-04-29T02:03:03;11.40;99.90
9219;DHT22;4644;48.858;9.184;2023-04-29T02:05:30;11.30;99.90
9219;DHT22;4644;48.858;9.184;2023-04-29T02:07:58;11.30;99.90
9219;DHT22;4644;48.858;9.184;2023-04-29T02:10:25;11.20;99.90
9219;DHT22;4644;48.858;9.184;2023-04-29T02:12:53;11.10;99.90
9219;DHT22;4644;48.858;9.184;2023-04-29T02:15:22;11.10;99.90
9219;DHT22;4644;48.858;9.184;2023-04-29T02:17:51;11.00;99.90
9219;DHT22;4644;48.858;9.184;2023-04-29T02:20:18;10.90;99.90
9219;DHT22;4644;48.858;9.184;2023-04-29T02:22:45;10.80;99.90
9219;DHT22;4644;48.858;9.184;2023-04-29T02:25:12;10.80;99.90
9219;DHT22;4644;48.858;9.184;2023-04-29T02:27:39;10.80;99.90
9219;DHT22;4644;48.858;9.184;2023-04-29T02:30:09;10.70;99.90
9219;DHT22;4644;48.858;9.184;2023-04-29T02:32:38;10.70;99.90
9219;DHT22;4644;48.858;9.184;2023-04-29T02:35:05;10.70;99.90
9219;DHT22;4644;48.858;9.184;2023-04-29T02:37:33;10.70;99.90
9219;DHT22;4644;48.858;9.184;2023-04-29T02:40:00;10.70;99.90
9219;DHT22;4644;48.858;9.184;2023-04-29T02:42:28;10.70;99.90
9219;DHT22;4644;48.858;9.184;2023-04-29T02:44:55;10.60;99.90
9219;DHT22;4644;48.858;9.184;2023-04-29T02:47:22;10.60;99.90
9219;DHT22;4644;48.858;9.184;2023-04-29T02:49:51;10.50;99.90
9219;DHT22;4644;48.858;9.184;2023-04-29T02:52:17;10.40;99.90
9219;DHT22;4644;48.858;9.184;2023-04-29T02:54:44;10.30;99.90
9219;DHT22;4644;48.858;9.184;2023-04-29T02:57:11;10.30;99.90
9219;DHT22;4644;48.858;9.184;2023-04-29T02:59:38;10.20;99.90
9219;DHT22;4644;48.858;9.184;2023-04-29T03:02:05;10.20;99.90
9219;DHT22;4644;48.858;9.184;2023-04-29T03:04:32;10.20;99.90
9219;DHT22;4644;48.858;9.184;2023-04-29T03:07:00;10.10;99.90
9219;DHT22;4644;48.858;9.184;2023-04-29T03:09:27;10.10;99.90
9219;DHT22;4644;48.858;9.184;2023-04-29T03:11:54;10.00;99.90
9219;DHT22;4644;48.858;9.184;2023-04-29T03:14:22;10.00;99.90
9219;DHT22;4644;48.858;9.184;2023-04-29T03:16:49;10.00;99.90
9219;DHT22;4644;48.858;9.184;2023-04-29T03:19:16;10.00;99.90
9219;DHT22;4644;48.858;9.184;2023-04-29T03:21:43;9.90;99.90
9219;DHT22;4644;48.858;9.184;2023-04-29T03:24:12;9.80;99.90
9219;DHT22;4644;48.858;9.184;2023-04-29T03:26:39;9.80;99.90
9219;DHT22;4644;48.858;9.184;2023-04-29T03:29:07;9.70;99.90
9219;DHT22;4644;48.858;9.184;2023-04-29T03:31:34;9.70;99.90
9219;DHT22;4644;48.858;9.184;2023-04-29T03:34:02;9.60;99.90
9219;DHT22;4644;48.858;9.184;2023-04-29T03:36:28;9.60;99.90
9219;DHT22;4644;48.858;9.184;2023-04-29T03:38:55;9.60;99.90
9219;DHT22;4644;48.858;9.184;2023-04-29T03:41:24;9.60;99.90
9219;DHT22;4644;48.858;9.184;2023-04-29T03:43:51;9.60;99.90
9219;DHT22;4644;48.858;9.184;2023-04-29T03:46:19;9.60;99.90
9219;DHT22;4644;48.858;9.184;2023-04-29T03:48:46;9.50;99.90
9219;DHT22;4644;48.858;9.184;2023-04-29T03:51:13;9.50;99.90
9219;DHT22;4644;48.858;9.184;2023-04-29T03:53:40;9.50;99.90
9219;DHT22;4644;48.858;9.184;2023-04-29T03:56:07;9.40;99.90
9219;DHT22;4644;48.858;9.184;2023-04-29T03:58:35;9.40;99.90
9219;DHT22;4644;48.858;9.184;2023-04-29T04:01:02;9.40;99.90
9219;DHT22;4644;48.858;9.184;2023-04-29T04:03:29;9.40;99.90
9219;DHT22;4644;48.858;9.184;2023-04-29T04:05:57;9.40;99.90
9219;DHT22;4644;48.858;9.184;2023-04-29T04:08:24;9.40;99.90
9219;DHT22;4644;48.858;9.184;2023-04-29T04:10:51;9.30;99.90
9219;DHT22;4644;48.858;9.184;2023-04-29T04:13:27;9.30;99.90
9219;DHT22;4644;48.858;9.184;2023-04-29T04:15:55;9.30;99.90
9219;DHT22;4644;48.858;9.184;2023-04-29T04:18:22;9.30;99.90
9219;DHT22;4644;48.858;9.184;2023-04-29T04:20:49;9.30;99.90
9219;DHT22;4644;48.858;9.184;2023-04-29T04:23:16;9.30;99.90
9219;DHT22;4644;48.858;9.184;2023-04-29T04:25:47;9.30;99.90
9219;DHT22;4644;48.858;9.184;2023-04-29T04:28:14;9.30;99.90
9219;DHT22;4644;48.858;9.184;2023-04-29T04:30:41;9.30;99.90
9219;DHT22;4644;48.858;9.184;2023-04-29T04:33:09;9.40;99.90
9219;DHT22;4644;48.858;9.184;2023-04-29T04:35:36;9.40;99.90
9219;DHT22;4644;48.858;9.184;2023-04-29T04:38:04;9.40;99.90
9219;DHT22;4644;48.858;9.184;2023-04-29T04:40:31;9.50;99.90
9219;DHT22;4644;48.858;9.184;2023-04-29T04:42:58;9.50;99.90
9219;DHT22;4644;48.858;9.184;2023-04-29T04:45:27;9.60;99.90
9219;DHT22;4644;48.858;9.184;2023-04-29T04:47:54;9.70;99.90
9219;DHT22;4644;48.858;9.184;2023-04-29T04:50:23;9.80;99.90
9219;DHT22;4644;48.858;9.184;2023-04-29T04:52:49;9.90;99.90
9219;DHT22;4644;48.858;9.184;2023-04-29T04:55:16;10.00;99.90
9219;DHT22;4644;48.858;9.184;2023-04-29T04:57:43;10.00;99.90
9219;DHT22;4644;48.858;9.184;2023-04-29T05:00:11;10.00;99.90
9219;DHT22;4644;48.858;9.184;2023-04-29T05:02:38;10.10;99.90
9219;DHT22;4644;48.858;9.184;2023-04-29T05:05:05;10.30;99.90
9219;DHT22;4644;48.858;9.184;2023-04-29T05:07:34;10.60;99.90
9219;DHT22;4644;48.858;9.184;2023-04-29T05:10:01;10.80;99.90
9219;DHT22;4644;48.858;9.184;2023-04-29T05:12:28;11.00;99.90
9219;DHT22;4644;48.858;9.184;2023-04-29T05:14:56;11.10;99.90
9219;DHT22;4644;48.858;9.184;2023-04-29T05:17:23;11.20;99.90
9219;DHT22;4644;48.858;9.184;2023-04-29T05:19:50;11.30;99.90
9219;DHT22;4644;48.858;9.184;2023-04-29T05:22:17;11.30;99.90
9219;DHT22;4644;48.858;9.184;2023-04-29T05:24:45;11.40;99.90
9219;DHT22;4644;48.858;9.184;2023-04-29T05:27:12;11.40;99.90
9219;DHT22;4644;48.858;9.184;2023-04-29T05:29:39;11.50;99.90
9219;DHT22;4644;48.858;9.184;2023-04-29T05:32:06;11.50;99.90
9219;DHT22;4644;48.858;9.184;2023-04-29T05:34:33;11.70;99.90
9219;DHT22;4644;48.858;9.184;2023-04-29T05:37:00;11.70;99.90
9219;DHT22;4644;48.858;9.184;2023-04-29T05:39:27;11.80;99.90
9219;DHT22;4644;48.858;9.184;2023-04-29T05:41:55;11.80;99.90
9219;DHT22;4644;48.858;9.184;2023-04-29T05:44:23;11.80;99.90
9219;DHT22;4644;48.858;9.184;2023-04-29T05:46:50;11.80;99.90
9219;DHT22;4644;48.858;9.184;2023-04-29T05:49:17;11.80;99.90
9219;DHT22;4644;48.858;9.184;2023-04-29T05:51:44;11.70;99.90
9219;DHT22;4644;48.858;9.184;2023-04-29T05:54:11;11.70;99.90
9219;DHT22;4644;48.858;9.184;2023-04-29T05:56:38;11.70;99.90
9219;DHT22;4644;48.858;9.184;2023-04-29T05:59:06;11.70;99.90
9219;DHT22;4644;48.858;9.184;2023-04-29T06:01:33;11.80;99.90
9219;DHT22;4644;48.858;9.184;2023-04-29T06:04:00;11.90;99.90
9219;DHT22;4644;48.858;9.184;2023-04-29T06:06:27;11.90;99.90
9219;DHT22;4644;48.858;9.184;2023-04-29T06:08:54;11.80;99.90
9219;DHT22;4644;48.858;9.184;2023-04-29T06:11:22;11.90;99.90
9219;DHT22;4644;48.858;9.184;2023-04-29T06:13:49;12.00;99.90
9219;DHT22;4644;48.858;9.184;2023-04-29T06:16:17;12.10;99.90
9219;DHT22;4644;48.858;9.184;2023-04-29T06:18:44;12.40;99.90
9219;DHT22;4644;48.858;9.184;2023-04-29T06:21:11;12.50;99.90
9219;DHT22;4644;48.858;9.184;2023-04-29T06:23:38;12.50;99.90
9219;DHT22;4644;48.858;9.184;2023-04-29T06:26:05;12.50;99.90
9219;DHT22;4644;48.858;9.184;2023-04-29T06:28:32;12.60;99.90
9219;DHT22;4644;48.858;9.184;2023-04-29T06:30:58;12.60;99.90
9219;DHT22;4644;48.858;9.184;2023-04-29T06:33:27;12.40;99.90
9219;DHT22;4644;48.858;9.184;2023-04-29T06:35:54;12.60;99.90
9219;DHT22;4644;48.858;9.184;2023-04-29T06:38:22;12.60;99.90
9219;DHT22;4644;48.858;9.184;2023-04-29T06:40:48;12.50;99.90
9219;DHT22;4644;48.858;9.184;2023-04-29T06:43:15;12.50;99.90
9219;DHT22;4644;48.858;9.184;2023-04-29T06:45:45;12.50;99.90
9219;DHT22;4644;48.858;9.184;2023-04-29T06:48:12;12.40;99.90
9219;DHT22;4644;48.858;9.184;2023-04-29T06:50:48;12.30;99.90
9219;DHT22;4644;48.858;9.184;2023-04-29T06:53:15;12.30;99.90
9219;DHT22;4644;48.858;9.184;2023-04-29T06:55:42;12.20;99.90
9219;DHT22;4644;48.858;9.184;2023-04-29T06:58:09;12.40;99.90
9219;DHT22;4644;48.858;9.184;2023-04-29T07:00:36;12.60;99.90
9219;DHT22;4644;48.858;9.184;2023-04-29T07:03:03;12.80;99.90
9219;DHT22;4644;48.858;9.184;2023-04-29T07:05:30;13.20;99.90
9219;DHT22;4644;48.858;9.184;2023-04-29T07:07:58;13.20;99.90
9219;DHT22;4644;48.858;9.184;2023-04-29T07:10:25;13.20;99.90
9219;DHT22;4644;48.858;9.184;2023-04-29T07:12:52;13.00;99.90
9219;DHT22;4644;48.858;9.184;2023-04-29T07:15:19;13.00;99.90
9219;DHT22;4644;48.858;9.184;2023-04-29T07:17:46;13.10;99.90
9219;DHT22;4644;48.858;9.184;2023-04-29T07:20:13;13.20;99.90
9219;DHT22;4644;48.858;9.184;2023-04-29T07:22:40;13.30;99.90
9219;DHT22;4644;48.858;9.184;2023-04-29T07:25:09;13.40;99.90
9219;DHT22;4644;48.858;9.184;2023-04-29T07:27:36;13.40;99.90
9219;DHT22;4644;48.858;9.184;2023-04-29T07:30:04;13.50;99.90
9219;DHT22;4644;48.858;9.184;2023-04-29T07:32:31;13.60;99.90
9219;DHT22;4644;48.858;9.184;2023-04-29T07:34:58;13.80;99.90
9219;DHT22;4644;48.858;9.184;2023-04-29T07:37:26;13.90;99.90
9219;DHT22;4644;48.858;9.184;2023-04-29T07:39:53;13.80;99.90
9219;DHT22;4644;48.858;9.184;2023-04-29T07:42:22;13.70;99.90
9219;DHT22;4644;48.858;9.184;2023-04-29T07:44:49;13.70;99.90
9219;DHT22;4644;48.858;9.184;2023-04-29T07:47:16;13.80;99.90
9219;DHT22;4644;48.858;9.184;2023-04-29T07:49:43;13.70;99.90
9219;DHT22;4644;48.858;9.184;2023-04-29T07:52:10;13.80;99.90
9219;DHT22;4644;48.858;9.184;2023-04-29T07:54:36;13.80;99.90
9219;DHT22;4644;48.858;9.184;2023-04-29T07:57:03;13.70;99.90
9219;DHT22;4644;48.858;9.184;2023-04-29T07:59:32;13.70;99.90
9219;DHT22;4644;48.858;9.184;2023-04-29T08:01:59;13.50;99.90
9219;DHT22;4644;48.858;9.184;2023-04-29T08:04:26;13.40;99.90
9219;DHT22;4644;48.858;9.184;2023-04-29T08:06:53;13.30;99.90
9219;DHT22;4644;48.858;9.184;2023-04-29T08:09:20;13.20;99.90
9219;DHT22;4644;48.858;9.184;2023-04-29T08:11:47;13.10;99.90
9219;DHT22;4644;48.858;9.184;2023-04-29T08:14:14;13.00;99.90
9219;DHT22;4644;48.858;9.184;2023-04-29T08:16:42;13.10;99.90
9219;DHT22;4644;48.858;9.184;2023-04-29T08:19:09;13.00;99.90
9219;DHT22;4644;48.858;9.184;2023-04-29T08:21:36;13.00;99.90
9219;DHT22;4644;48.858;9.184;2023-04-29T08:24:03;13.00;99.90
9219;DHT22;4644;48.858;9.184;2023-04-29T08:26:30;13.10;99.90
9219;DHT22;4644;48.858;9.184;2023-04-29T08:28:57;13.20;99.90
9219;DHT22;4644;48.858;9.184;2023-04-29T08:31:25;13.40;99.90
9219;DHT22;4644;48.858;9.184;2023-04-29T08:33:53;13.50;99.90
9219;DHT22;4644;48.858;9.184;2023-04-29T08:36:20;13.80;99.90
9219;DHT22;4644;48.858;9.184;2023-04-29T08:38:47;13.80;99.90
9219;DHT22;4644;48.858;9.184;2023-04-29T08:41:17;13.60;99.90
9219;DHT22;4644;48.858;9.184;2023-04-29T08:43:44;13.70;99.90
9219;DHT22;4644;48.858;9.184;2023-04-29T08:46:11;13.80;99.90
9219;DHT22;4644;48.858;9.184;2023-04-29T08:48:39;13.90;99.90
9219;DHT22;4644;48.858;9.184;2023-04-29T08:51:10;14.00;99.90
9219;DHT22;4644;48.858;9.184;2023-04-29T08:53:38;14.00;99.90
9219;DHT22;4644;48.858;9.184;2023-04-29T08:56:12;14.10;99.90
9219;DHT22;4644;48.858;9.184;2023-04-29T08:58:42;14.30;99.90
9219;DHT22;4644;48.858;9.184;2023-04-29T09:01:11;14.60;99.90
9219;DHT22;4644;48.858;9.184;2023-04-29T09:03:43;14.70;99.90
9219;DHT22;4644;48.858;9.184;2023-04-29T09:06:14;14.60;99.90
9219;DHT22;4644;48.858;9.184;2023-04-29T09:08:41;14.80;99.90
9219;DHT22;4644;48.858;9.184;2023-04-29T09:11:10;15.00;99.90
9219;DHT22;4644;48.858;9.184;2023-04-29T09:13:38;14.90;99.90
9219;DHT22;4644;48.858;9.184;2023-04-29T09:16:09;15.00;99.90
9219;DHT22;4644;48.858;9.184;2023-04-29T09:18:45;14.90;99.90
9219;DHT22;4644;48.858;9.184;2023-04-29T09:21:15;14.80;99.90
9219;DHT22;4644;48.858;9.184;2023-04-29T09:23:43;14.40;99.90
9219;DHT22;4644;48.858;9.184;2023-04-29T09:26:10;14.40;99.90
9219;DHT22;4644;48.858;9.184;2023-04-29T09:28:37;14.50;99.90
9219;DHT22;4644;48.858;9.184;2023-04-29T09:31:08;14.70;99.90
9219;DHT22;4644;48.858;9.184;2023-04-29T09:33:52;15.00;99.90
9219;DHT22;4644;48.858;9.184;2023-04-29T09:36:40;14.90;99.90
9219;DHT22;4644;48.858;9.184;2023-04-29T09:39:10;14.90;99.90
9219;DHT22;4644;48.858;9.184;2023-04-29T09:41:39;15.00;99.90
9219;DHT22;4644;48.858;9.184;2023-04-29T09:44:07;14.70;99.90
9219;DHT22;4644;48.858;9.184;2023-04-29T09:46:36;14.70;99.90
9219;DHT22;4644;48.858;9.184;2023-04-29T09:49:04;14.80;99.90
9219;DHT22;4644;48.858;9.184;2023-04-29T09:51:53;14.70;99.90
9219;DHT22;4644;48.858;9.184;2023-04-29T09:54:21;15.10;99.90
9219;DHT22;4644;48.858;9.184;2023-04-29T09:56:49;15.30;99.90
9219;DHT22;4644;48.858;9.184;2023-04-29T09:59:17;15.40;99.90
9219;DHT22;4644;48.858;9.184;2023-04-29T10:01:45;15.60;99.90
9219;DHT22;4644;48.858;9.184;2023-04-29T10:04:15;15.70;99.90
9219;DHT22;4644;48.858;9.184;2023-04-29T10:06:43;15.60;99.90
9219;DHT22;4644;48.858;9.184;2023-04-29T10:09:15;15.60;99.90
9219;DHT22;4644;48.858;9.184;2023-04-29T10:11:43;15.60;99.90
9219;DHT22;4644;48.858;9.184;2023-04-29T10:14:12;15.60;99.90
9219;DHT22;4644;48.858;9.184;2023-04-29T10:16:45;15.60;99.90
9219;DHT22;4644;48.858;9.184;2023-04-29T10:19:18;15.60;99.90
9219;DHT22;4644;48.858;9.184;2023-04-29T10:21:46;15.90;99.90
9219;DHT22;4644;48.858;9.184;2023-04-29T10:24:16;16.30;99.90
9219;DHT22;4644;48.858;9.184;2023-04-29T10:26:46;16.50;99.90
9219;DHT22;4644;48.858;9.184;2023-04-29T10:29:13;16.90;99.90
9219;DHT22;4644;48.858;9.184;2023-04-29T10:31:42;17.10;99.90
9219;DHT22;4644;48.858;9.184;2023-04-29T10:34:10;17.30;99.90
9219;DHT22;4644;48.858;9.184;2023-04-29T10:36:38;17.40;99.90
9219;DHT22;4644;48.858;9.184;2023-04-29T10:39:08;17.90;99.90
9219;DHT22;4644;48.858;9.184;2023-04-29T10:41:43;18.60;99.90
9219;DHT22;4644;48.858;9.184;2023-04-29T10:44:11;19.20;99.90
9219;DHT22;4644;48.858;9.184;2023-04-29T10:46:38;19.40;99.90
9219;DHT22;4644;48.858;9.184;2023-04-29T10:49:06;20.00;99.90
9219;DHT22;4644;48.858;9.184;2023-04-29T10:51:34;19.80;99.90
9219;DHT22;4644;48.858;9.184;2023-04-29T10:54:07;20.50;99.90
9219;DHT22;4644;48.858;9.184;2023-04-29T10:56:41;20.50;99.90
9219;DHT22;4644;48.858;9.184;2023-04-29T10:59:13;20.20;99.90
9219;DHT22;4644;48.858;9.184;2023-04-29T11:01:45;20.50;99.90
9219;DHT22;4644;48.858;9.184;2023-04-29T11:04:15;20.10;99.90
9219;DHT22;4644;48.858;9.184;2023-04-29T11:06:44;19.40;99.90
9219;DHT22;4644;48.858;9.184;2023-04-29T11:09:19;19.10;99.90
9219;DHT22;4644;48.858;9.184;2023-04-29T11:11:56;18.80;99.90
9219;DHT22;4644;48.858;9.184;2023-04-29T11:14:30;18.60;99.90
9219;DHT22;4644;48.858;9.184;2023-04-29T11:16:59;18.60;99.90
9219;DHT22;4644;48.858;9.184;2023-04-29T11:19:30;18.20;99.90
9219;DHT22;4644;48.858;9.184;2023-04-29T11:22:10;18.20;99.90
9219;DHT22;4644;48.858;9.184;2023-04-29T11:24:51;17.80;99.90
9219;DHT22;4644;48.858;9.184;2023-04-29T11:27:21;18.80;99.90
9219;DHT22;4644;48.858;9.184;2023-04-29T11:29:50;19.70;99.90
9219;DHT22;4644;48.858;9.184;2023-04-29T11:32:20;19.50;99.90
9219;DHT22;4644;48.858;9.184;2023-04-29T11:34:48;19.40;99.90
9219;DHT22;4644;48.858;9.184;2023-04-29T11:37:19;19.00;99.90
9219;DHT22;4644;48.858;9.184;2023-04-29T11:39:47;19.20;99.90
9219;DHT22;4644;48.858;9.184;2023-04-29T11:42:20;19.40;99.90
9219;DHT22;4644;48.858;9.184;2023-04-29T11:44:50;19.40;99.90
9219;DHT22;4644;48.858;9.184;2023-04-29T11:47:18;19.70;99.90
9219;DHT22;4644;48.858;9.184;2023-04-29T11:49:47;19.20;99.90
9219;DHT22;4644;48.858;9.184;2023-04-29T11:52:14;18.60;99.90
9219;DHT22;4644;48.858;9.184;2023-04-29T11:54:41;18.30;99.90
9219;DHT22;4644;48.858;9.184;2023-04-29T11:57:10;17.70;99.90
9219;DHT22;4644;48.858;9.184;2023-04-29T11:59:41;17.60;99.90
9219;DHT22;4644;48.858;9.184;2023-04-29T12:02:11;17.30;99.90
9219;DHT22;4644;48.858;9.184;2023-04-29T12:04:44;17.00;99.90
9219;DHT22;4644;48.858;9.184;2023-04-29T12:07:13;17.20;99.90
9219;DHT22;4644;48.858;9.184;2023-04-29T12:09:41;17.20;99.90
9219;DHT22;4644;48.858;9.184;2023-04-29T12:12:09;17.30;99.90
9219;DHT22;4644;48.858;9.184;2023-04-29T12:14:38;17.50;99.90
9219;DHT22;4644;48.858;9.184;2023-04-29T12:17:06;17.60;99.90
9219;DHT22;4644;48.858;9.184;2023-04-29T12:19:34;17.70;99.90
9219;DHT22;4644;48.858;9.184;2023-04-29T12:22:04;17.20;99.90
9219;DHT22;4644;48.858;9.184;2023-04-29T12:24:33;17.00;99.90
9219;DHT22;4644;48.858;9.184;2023-04-29T12:27:00;16.70;99.90
9219;DHT22;4644;48.858;9.184;2023-04-29T12:29:26;16.90;99.90
9219;DHT22;4644;48.858;9.184;2023-04-29T12:31:56;16.90;99.90
9219;DHT22;4644;48.858;9.184;2023-04-29T12:34:27;17.00;99.90
9219;DHT22;4644;48.858;9.184;2023-04-29T12:36:55;17.10;99.90
9219;DHT22;4644;48.858;9.184;2023-04-29T12:39:22;17.10;99.90
9219;DHT22;4644;48.858;9.184;2023-04-29T12:41:53;17.20;99.90
9219;DHT22;4644;48.858;9.184;2023-04-29T12:44:20;17.20;99.90
9219;DHT22;4644;48.858;9.184;2023-04-29T12:46:47;17.00;99.90
9219;DHT22;4644;48.858;9.184;2023-04-29T12:49:16;17.10;99.90
9219;DHT22;4644;48.858;9.184;2023-04-29T12:51:45;16.90;99.90
9219;DHT22;4644;48.858;9.184;2023-04-29T12:54:12;17.40;99.90
9219;DHT22;4644;48.858;9.184;2023-04-29T12:56:39;17.40;99.90
9219;DHT22;4644;48.858;9.184;2023-04-29T12:59:06;17.20;99.90
9219;DHT22;4644;48.858;9.184;2023-04-29T13:01:34;17.20;99.90
9219;DHT22;4644;48.858;9.184;2023-04-29T13:04:01;17.20;99.90
9219;DHT22;4644;48.858;9.184;2023-04-29T13:06:31;17.10;99.90
9219;DHT22;4644;48.858;9.184;2023-04-29T13:08:58;17.10;99.90
9219;DHT22;4644;48.858;9.184;2023-04-29T13:11:25;16.90;99.90
9219;DHT22;4644;48.858;9.184;2023-04-29T13:13:51;16.50;99.90
9219;DHT22;4644;48.858;9.184;2023-04-29T13:16:19;16.50;99.90
9219;DHT22;4644;48.858;9.184;2023-04-29T13:18:45;16.40;99.90
9219;DHT22;4644;48.858;9.184;2023-04-29T13:21:12;16.20;99.90
9219;DHT22;4644;48.858;9.184;2023-04-29T13:23:41;16.10;99.90
9219;DHT22;4644;48.858;9.184;2023-04-29T13:26:07;16.40;99.90
9219;DHT22;4644;48.858;9.184;2023-04-29T13:28:36;16.30;99.90
9219;DHT22;4644;48.858;9.184;2023-04-29T13:31:03;16.20;99.90
9219;DHT22;4644;48.858;9.184;2023-04-29T13:33:30;16.30;99.90
9219;DHT22;4644;48.858;9.184;2023-04-29T13:35:57;16.30;99.90
9219;DHT22;4644;48.858;9.184;2023-04-29T13:38:24;16.10;99.90
9219;DHT22;4644;48.858;9.184;2023-04-29T13:40:52;16.10;99.90
9219;DHT22;4644;48.858;9.184;2023-04-29T13:43:20;16.20;99.90
9219;DHT22;4644;48.858;9.184;2023-04-29T13:45:47;16.30;99.90
9219;DHT22;4644;48.858;9.184;2023-04-29T13:48:14;16.00;99.90
9219;DHT22;4644;48.858;9.184;2023-04-29T13:50:41;16.10;99.90
9219;DHT22;4644;48.858;9.184;2023-04-29T13:53:09;16.40;99.90
9219;DHT22;4644;48.858;9.184;2023-04-29T13:55:36;16.70;99.90
9219;DHT22;4644;48.858;9.184;2023-04-29T13:58:04;16.60;99.90
9219;DHT22;4644;48.858;9.184;2023-04-29T14:00:32;16.70;99.90
9219;DHT22;4644;48.858;9.184;2023-04-29T14:03:00;16.60;99.90
9219;DHT22;4644;48.858;9.184;2023-04-29T14:05:27;16.50;99.90
9219;DHT22;4644;48.858;9.184;2023-04-29T14:07:54;16.40;99.90
9219;DHT22;4644;48.858;9.184;2023-04-29T14:10:21;16.40;99.90
9219;DHT22;4644;48.858;9.184;2023-04-29T14:12:48;16.50;99.90
9219;DHT22;4644;48.858;9.184;2023-04-29T14:15:17;16.30;99.90
9219;DHT22;4644;48.858;9.184;2023-04-29T14:17:44;16.20;99.90
9219;DHT22;4644;48.858;9.184;2023-04-29T14:20:12;16.10;99.90
9219;DHT22;4644;48.858;9.184;2023-04-29T14:22:39;16.40;99.90
9219;DHT22;4644;48.858;9.184;2023-04-29T14:25:09;16.60;99.90
9219;DHT22;4644;48.858;9.184;2023-04-29T14:27:37;16.60;99.90
9219;DHT22;4644;48.858;9.184;2023-04-29T14:30:05;16.50;99.90
9219;DHT22;4644;48.858;9.184;2023-04-29T14:32:33;16.40;99.90
9219;DHT22;4644;48.858;9.184;2023-04-29T14:35:00;16.40;99.90
9219;DHT22;4644;48.858;9.184;2023-04-29T14:37:27;16.50;99.90
9219;DHT22;4644;48.858;9.184;2023-04-29T14:39:54;16.40;99.90
9219;DHT22;4644;48.858;9.184;2023-04-29T14:42:21;16.40;99.90
9219;DHT22;4644;48.858;9.184;2023-04-29T14:44:47;16.50;99.90
9219;DHT22;4644;48.858;9.184;2023-04-29T14:47:14;16.50;99.90
9219;DHT22;4644;48.858;9.184;2023-04-29T14:49:43;16.40;99.90
9219;DHT22;4644;48.858;9.184;2023-04-29T14:52:10;16.10;99.90
9219;DHT22;4644;48.858;9.184;2023-04-29T14:54:37;16.00;99.90
9219;DHT22;4644;48.858;9.184;2023-04-29T14:57:03;16.00;99.90
9219;DHT22;4644;48.858;9.184;2023-04-29T14:59:31;15.90;99.90
9219;DHT22;4644;48.858;9.184;2023-04-29T15:01:58;15.90;99.90
9219;DHT22;4644;48.858;9.184;2023-04-29T15:04:25;15.80;99.90
9219;DHT22;4644;48.858;9.184;2023-04-29T15:06:53;15.50;99.90
9219;DHT22;4644;48.858;9.184;2023-04-29T15:09:20;15.40;99.90
9219;DHT22;4644;48.858;9.184;2023-04-29T15:11:47;15.50;99.90
9219;DHT22;4644;48.858;9.184;2023-04-29T15:14:14;15.30;99.90
9219;DHT22;4644;48.858;9.184;2023-04-29T15:16:41;15.30;99.90
9219;DHT22;4644;48.858;9.184;2023-04-29T15:19:08;15.60;99.90
9219;DHT22;4644;48.858;9.184;2023-04-29T15:21:35;15.50;99.90
9219;DHT22;4644;48.858;9.184;2023-04-29T15:24:04;15.40;99.90
9219;DHT22;4644;48.858;9.184;2023-04-29T15:26:33;15.30;99.90
9219;DHT22;4644;48.858;9.184;2023-04-29T15:29:00;15.40;99.90
9219;DHT22;4644;48.858;9.184;2023-04-29T15:31:27;15.40;99.90
9219;DHT22;4644;48.858;9.184;2023-04-29T15:33:54;15.30;99.90
9219;DHT22;4644;48.858;9.184;2023-04-29T15:36:27;15.20;99.90
9219;DHT22;4644;48.858;9.184;2023-04-29T15:38:54;15.10;99.90
9219;DHT22;4644;48.858;9.184;2023-04-29T15:41:23;15.10;99.90
9219;DHT22;4644;48.858;9.184;2023-04-29T15:43:51;14.90;99.90
9219;DHT22;4644;48.858;9.184;2023-04-29T15:46:19;15.00;99.90
9219;DHT22;4644;48.858;9.184;2023-04-29T15:48:46;15.00;99.90
9219;DHT22;4644;48.858;9.184;2023-04-29T15:51:13;15.00;99.90
9219;DHT22;4644;48.858;9.184;2023-04-29T15:53:40;15.10;99.90
9219;DHT22;4644;48.858;9.184;2023-04-29T15:56:08;14.90;99.90
9219;DHT22;4644;48.858;9.184;2023-04-29T15:58:37;14.90;99.90
9219;DHT22;4644;48.858;9.184;2023-04-29T16:01:04;14.80;99.90
9219;DHT22;4644;48.858;9.184;2023-04-29T16:03:31;14.70;99.90
9219;DHT22;4644;48.858;9.184;2023-04-29T16:05:58;14.80;99.90
9219;DHT22;4644;48.858;9.184;2023-04-29T16:08:25;14.70;99.90